Time;durP1;ratioP1;P1;durP2;ratioP2;P2;SDS_P1;SDS_P2;PMS_P1;PMS_P2;Temp;Humidity;BMP_temperature;BMP_pressure;BME280_temperature;BME280_humidity;BME280_pressure;Samples;Min_cycle;Max_cycle;Signal;HPM_P1;HPM_P2
2022/07/19 00:00:24;;;;;;;3.87;3.57;;;28.60;53.30;;;;;;4936243;29;20462;-70
2022/07/19 00:02:53;;;;;;;6.63;4.67;;;28.60;53.20;;;;;;4935008;29;20958;-70
2022/07/19 00:05:22;;;;;;;4.23;3.83;;;28.60;53.10;;;;;;4935488;29;20455;-70
2022/07/19 00:07:50;;;;;;;4.47;3.77;;;28.60;53.00;;;;;;4933682;29;20458;-70
2022/07/19 00:10:20;;;;;;;4.20;3.90;;;28.60;52.90;;;;;;4935409;29;20459;-70
2022/07/19 00:12:49;;;;;;;3.83;3.53;;;28.60;52.90;;;;;;4935184;29;20496;-70
2022/07/19 00:15:18;;;;;;;5.03;4.70;;;28.60;52.90;;;;;;4935303;29;20499;-70
2022/07/19 00:17:49;;;;;;;4.27;3.20;;;28.50;52.90;;;;;;4935400;29;20432;-70
2022/07/19 00:20:20;;;;;;;5.97;3.50;;;28.50;52.80;;;;;;4935126;29;20470;-71
2022/07/19 00:22:48;;;;;;;4.33;3.93;;;28.50;52.80;;;;;;4925243;29;20922;-70
2022/07/19 00:25:17;;;;;;;9.43;3.67;;;28.50;52.80;;;;;;4935176;29;21036;-70
2022/07/19 00:27:45;;;;;;;4.07;3.77;;;28.50;52.80;;;;;;4935721;29;20428;-70
2022/07/19 00:30:14;;;;;;;4.43;4.03;;;28.50;52.80;;;;;;4935189;29;22233;-71
2022/07/19 00:32:42;;;;;;;4.80;4.27;;;28.50;52.80;;;;;;4936142;29;20440;-70
2022/07/19 00:35:11;;;;;;;3.83;3.53;;;28.50;52.80;;;;;;4935444;29;21179;-70
2022/07/19 00:37:40;;;;;;;3.60;3.40;;;28.50;52.80;;;;;;4935835;29;20427;-70
2022/07/19 00:40:15;;;;;;;3.93;3.40;;;28.50;52.80;;;;;;4933749;29;20455;-70
2022/07/19 00:42:44;;;;;;;4.73;3.83;;;28.50;52.80;;;;;;4935296;29;20430;-72
2022/07/19 00:45:12;;;;;;;4.57;4.23;;;28.50;52.80;;;;;;4924604;29;20448;-70
2022/07/19 00:47:41;;;;;;;5.53;3.90;;;28.50;52.80;;;;;;4921875;29;20445;-70
2022/07/19 00:50:11;;;;;;;3.90;3.70;;;28.50;52.80;;;;;;4923445;29;20462;-70
2022/07/19 00:52:40;;;;;;;3.60;3.30;;;28.50;52.80;;;;;;4923684;29;20541;-70
2022/07/19 00:55:10;;;;;;;4.13;3.67;;;28.50;52.80;;;;;;4919684;29;20528;-70
2022/07/19 00:57:39;;;;;;;4.43;4.03;;;28.50;52.80;;;;;;4920036;29;20578;-70
2022/07/19 01:00:09;;;;;;;3.80;3.50;;;28.40;52.90;;;;;;4920117;29;20480;-70
2022/07/19 01:02:37;;;;;;;3.53;3.30;;;28.40;52.90;;;;;;4926970;29;20467;-70
2022/07/19 01:05:08;;;;;;;3.90;3.57;;;28.40;52.90;;;;;;4920771;29;20457;-70
2022/07/19 01:07:38;;;;;;;7.40;5.40;;;28.40;52.80;;;;;;4919852;29;20854;-70
2022/07/19 01:10:08;;;;;;;4.20;3.90;;;28.40;52.80;;;;;;4926627;29;20533;-70
2022/07/19 01:12:37;;;;;;;4.20;3.40;;;28.40;52.80;;;;;;4934750;29;20482;-70
2022/07/19 01:15:15;;;;;;;4.23;3.87;;;28.40;52.90;;;;;;4935185;29;21040;-74
2022/07/19 01:17:44;;;;;;;4.00;3.70;;;28.40;52.90;;;;;;4934957;29;20481;-72
2022/07/19 01:20:12;;;;;;;5.80;4.00;;;28.40;52.90;;;;;;4917009;29;20486;-70
2022/07/19 01:22:42;;;;;;;3.97;3.67;;;28.40;52.90;;;;;;4934415;29;20907;-70
2022/07/19 01:25:11;;;;;;;4.77;4.33;;;28.40;53.00;;;;;;4931308;29;20842;-70
2022/07/19 01:27:40;;;;;;;7.83;4.70;;;28.40;53.00;;;;;;4918404;29;20998;-70
2022/07/19 01:30:13;;;;;;;4.30;3.97;;;28.40;53.00;;;;;;4934075;29;20460;-73
2022/07/19 01:32:42;;;;;;;5.40;4.20;;;28.50;53.00;;;;;;4934640;29;20464;-70
2022/07/19 01:35:10;;;;;;;5.83;4.17;;;28.40;53.00;;;;;;4934028;29;20483;-70
2022/07/19 01:37:41;;;;;;;4.33;4.03;;;28.40;53.00;;;;;;4935051;29;20447;-70
2022/07/19 01:40:11;;;;;;;3.90;3.60;;;28.40;53.00;;;;;;4933302;29;20456;-70
2022/07/19 01:42:40;;;;;;;3.70;3.50;;;28.40;53.00;;;;;;4923266;29;21002;-70
2022/07/19 01:45:09;;;;;;;4.40;4.00;;;28.40;52.90;;;;;;4934475;29;20457;-70
2022/07/19 01:47:38;;;;;;;4.03;3.73;;;28.40;52.80;;;;;;4935001;29;20462;-70
2022/07/19 01:50:08;;;;;;;4.80;4.40;;;28.50;52.70;;;;;;4932521;29;21019;-71
2022/07/19 01:52:36;;;;;;;4.00;3.70;;;28.50;52.70;;;;;;4934279;29;20498;-70
2022/07/19 01:55:07;;;;;;;3.53;3.23;;;28.50;52.70;;;;;;4933483;29;20507;-71
2022/07/19 01:57:36;;;;;;;7.97;3.87;;;28.40;52.70;;;;;;4934901;29;20526;-70
2022/07/19 02:00:05;;;;;;;4.33;3.93;;;28.40;52.70;;;;;;4932551;29;20494;-70
2022/07/19 02:02:39;;;;;;;3.90;3.60;;;28.40;52.70;;;;;;4933648;29;20453;-70
2022/07/19 02:05:08;;;;;;;4.23;3.40;;;28.30;52.60;;;;;;4934596;29;20442;-70
2022/07/19 02:07:38;;;;;;;5.77;3.57;;;28.30;52.60;;;;;;4934425;29;20441;-70
2022/07/19 02:10:10;;;;;;;3.70;3.40;;;28.30;52.60;;;;;;4932791;29;20526;-72
2022/07/19 02:12:39;;;;;;;4.50;4.10;;;28.30;52.60;;;;;;4934343;29;20447;-70
2022/07/19 02:15:08;;;;;;;4.00;3.57;;;28.30;52.60;;;;;;4933209;29;20494;-70
2022/07/19 02:17:37;;;;;;;4.00;3.70;;;28.30;52.50;;;;;;4931483;29;20534;-70
2022/07/19 02:20:06;;;;;;;4.97;3.90;;;28.40;52.50;;;;;;4932900;29;20821;-69
2022/07/19 02:22:34;;;;;;;4.13;3.73;;;28.40;52.40;;;;;;4934351;29;20468;-70
2022/07/19 02:25:03;;;;;;;4.53;4.13;;;28.40;52.40;;;;;;4929444;29;20596;-69
2022/07/19 02:27:33;;;;;;;3.80;3.50;;;28.40;52.50;;;;;;4934388;29;20463;-69
2022/07/19 02:30:01;;;;;;;4.10;3.80;;;28.40;52.50;;;;;;4932169;29;20498;-69
2022/07/19 02:32:29;;;;;;;5.27;4.70;;;28.30;52.50;;;;;;4932641;29;20483;-70
2022/07/19 02:34:57;;;;;;;4.30;3.70;;;28.30;52.50;;;;;;4930040;29;20565;-70
2022/07/19 02:37:26;;;;;;;5.23;3.90;;;28.30;52.40;;;;;;4934000;29;20459;-69
2022/07/19 02:39:54;;;;;;;3.90;3.50;;;28.30;52.40;;;;;;4933330;29;20448;-69
2022/07/19 02:42:22;;;;;;;4.20;3.83;;;28.30;52.40;;;;;;4936330;29;20460;-71
2022/07/19 02:44:52;;;;;;;5.87;3.90;;;28.30;52.30;;;;;;4937320;29;20516;-70
2022/07/19 02:47:20;;;;;;;4.77;4.30;;;28.30;52.30;;;;;;4937440;29;21001;-70
2022/07/19 02:49:48;;;;;;;4.60;4.13;;;28.30;52.30;;;;;;4937473;29;20493;-73
2022/07/19 02:52:16;;;;;;;3.90;3.67;;;28.30;52.30;;;;;;4935880;29;20494;-70
2022/07/19 02:54:45;;;;;;;4.07;3.33;;;28.30;52.30;;;;;;4937071;29;20479;-70
2022/07/19 02:57:14;;;;;;;4.10;3.70;;;28.30;52.30;;;;;;4936803;29;20495;-70
2022/07/19 02:59:44;;;;;;;4.07;3.77;;;28.30;52.20;;;;;;4937040;29;20458;-69
2022/07/19 03:02:14;;;;;;;4.00;3.70;;;28.30;52.20;;;;;;4918820;29;20934;-70
2022/07/19 03:04:42;;;;;;;3.40;3.20;;;28.30;52.10;;;;;;4921655;29;20672;-70
2022/07/19 03:07:10;;;;;;;4.57;4.17;;;28.30;52.10;;;;;;4937177;29;20428;-69
2022/07/19 03:09:39;;;;;;;4.67;4.30;;;28.30;52.10;;;;;;4937026;29;20961;-70
2022/07/19 03:12:07;;;;;;;4.00;3.80;;;28.30;52.10;;;;;;4936397;29;20450;-69
2022/07/19 03:14:35;;;;;;;4.80;4.10;;;28.20;52.10;;;;;;4936205;29;20464;-71
2022/07/19 03:17:04;;;;;;;4.77;4.10;;;28.30;52.10;;;;;;4934748;29;20605;-70
2022/07/19 03:19:33;;;;;;;4.50;4.10;;;28.20;52.10;;;;;;4919767;29;20798;-70
2022/07/19 03:22:01;;;;;;;4.20;3.80;;;28.20;52.00;;;;;;4936096;29;20498;-70
2022/07/19 03:24:30;;;;;;;4.07;3.77;;;28.20;52.00;;;;;;4934374;29;21055;-70
2022/07/19 03:26:58;;;;;;;4.00;3.70;;;28.20;52.10;;;;;;4935967;29;20931;-69
2022/07/19 03:29:26;;;;;;;4.37;3.97;;;28.20;52.10;;;;;;4930045;29;20453;-70
2022/07/19 03:31:57;;;;;;;4.10;3.70;;;28.20;52.00;;;;;;4920065;29;20445;-70
2022/07/19 03:34:25;;;;;;;4.23;4.03;;;28.20;52.00;;;;;;4935028;29;20475;-70
2022/07/19 03:36:55;;;;;;;4.90;3.80;;;28.20;52.00;;;;;;4934669;29;20536;-70
2022/07/19 03:39:23;;;;;;;6.27;3.87;;;28.20;52.00;;;;;;4935740;29;20476;-69
2022/07/19 03:41:52;;;;;;;4.33;3.93;;;28.20;52.00;;;;;;4935760;29;20432;-70
2022/07/19 03:44:27;;;;;;;4.33;3.47;;;28.10;52.00;;;;;;4935920;29;20439;-70
2022/07/19 03:46:55;;;;;;;3.50;3.30;;;28.20;52.00;;;;;;4917077;29;20480;-69
2022/07/19 03:49:23;;;;;;;5.60;4.97;;;28.10;52.00;;;;;;4917333;29;20843;-69
2022/07/19 03:51:52;;;;;;;3.93;3.63;;;28.00;52.20;;;;;;4916482;29;20516;-69
2022/07/19 03:54:21;;;;;;;3.70;3.40;;;27.80;52.70;;;;;;4916421;29;20824;-69
2022/07/19 03:56:49;;;;;;;4.37;4.03;;;27.80;52.70;;;;;;4934625;29;20487;-69
2022/07/19 03:59:18;;;;;;;6.60;4.07;;;27.90;52.70;;;;;;4935926;29;20512;-69
2022/07/19 04:01:46;;;;;;;8.77;4.70;;;27.90;52.60;;;;;;4932067;29;20443;-69
2022/07/19 04:04:14;;;;;;;3.93;3.53;;;28.00;52.50;;;;;;4935364;29;20455;-70
2022/07/19 04:06:42;;;;;;;4.17;3.87;;;28.00;52.50;;;;;;4932928;29;20495;-69
2022/07/19 04:09:11;;;;;;;4.63;4.23;;;28.00;52.50;;;;;;4934420;29;20488;-69
2022/07/19 04:11:40;;;;;;;3.67;3.37;;;28.00;52.50;;;;;;4935169;29;20443;-70
2022/07/19 04:14:08;;;;;;;3.70;3.40;;;28.10;52.40;;;;;;4934058;29;20503;-70
2022/07/19 04:16:37;;;;;;;4.20;3.80;;;28.10;52.40;;;;;;4933026;29;21037;-69
2022/07/19 04:19:05;;;;;;;4.33;3.87;;;28.10;52.30;;;;;;4935444;29;20787;-69
2022/07/19 04:21:34;;;;;;;4.90;3.90;;;28.10;52.30;;;;;;4935637;29;20481;-70
2022/07/19 04:24:03;;;;;;;4.60;4.00;;;28.20;52.10;;;;;;4930782;29;20555;-69
2022/07/19 04:26:38;;;;;;;4.30;3.90;;;28.20;52.00;;;;;;4914183;29;20478;-71
2022/07/19 04:29:08;;;;;;;4.23;3.83;;;28.20;52.00;;;;;;4910094;29;20863;-70
2022/07/19 04:31:36;;;;;;;6.63;4.30;;;28.20;52.10;;;;;;4905758;29;20806;-70
2022/07/19 04:34:05;;;;;;;9.00;3.97;;;28.10;52.20;;;;;;4914339;29;20448;-71
2022/07/19 04:36:34;;;;;;;4.43;4.07;;;28.10;52.50;;;;;;4914176;29;20832;-71
2022/07/19 04:39:03;;;;;;;3.73;3.43;;;28.10;52.50;;;;;;4915399;29;20472;-70
2022/07/19 04:41:31;;;;;;;6.37;3.93;;;28.10;52.50;;;;;;4914119;29;20931;-70
2022/07/19 04:44:00;;;;;;;3.80;3.60;;;28.10;52.40;;;;;;4916061;29;20560;-70
2022/07/19 04:46:29;;;;;;;4.47;4.17;;;28.10;52.40;;;;;;4915791;29;20483;-70
2022/07/19 04:48:58;;;;;;;6.00;3.93;;;28.10;52.40;;;;;;4915072;29;21003;-71
2022/07/19 04:51:26;;;;;;;5.80;3.70;;;28.10;52.40;;;;;;4910360;29;20496;-71
2022/07/19 04:53:55;;;;;;;4.80;4.33;;;28.10;52.40;;;;;;4912097;29;20453;-71
2022/07/19 04:56:23;;;;;;;4.40;3.77;;;28.10;52.40;;;;;;4914705;29;20475;-70
2022/07/19 04:58:51;;;;;;;4.73;4.37;;;28.10;52.40;;;;;;4895143;29;20531;-70
2022/07/19 05:01:19;;;;;;;4.47;4.10;;;28.10;52.50;;;;;;4904152;29;20490;-71
2022/07/19 05:03:49;;;;;;;3.90;3.60;;;28.10;52.50;;;;;;4909573;29;20470;-70
2022/07/19 05:06:17;;;;;;;4.50;4.10;;;28.10;52.60;;;;;;4910074;29;20463;-72
2022/07/19 05:08:45;;;;;;;4.30;3.90;;;28.10;52.70;;;;;;4915049;29;20517;-71
2022/07/19 05:11:13;;;;;;;4.87;3.50;;;28.10;52.80;;;;;;4898435;29;21018;-71
2022/07/19 05:13:42;;;;;;;5.13;4.00;;;28.10;52.90;;;;;;4909395;29;20925;-71
2022/07/19 05:16:10;;;;;;;6.03;5.17;;;28.10;53.00;;;;;;4902443;29;21288;-71
2022/07/19 05:18:38;;;;;;;6.07;4.03;;;28.10;53.00;;;;;;4905787;29;20459;-71
2022/07/19 05:21:08;;;;;;;4.73;4.33;;;28.10;53.00;;;;;;4908837;29;20457;-70
2022/07/19 05:23:36;;;;;;;4.17;3.87;;;28.10;52.90;;;;;;4911460;29;20465;-70
2022/07/19 05:26:07;;;;;;;7.20;3.90;;;28.10;52.90;;;;;;4926343;29;20577;-70
2022/07/19 05:28:36;;;;;;;3.97;3.67;;;28.00;53.00;;;;;;4930473;29;20468;-70
2022/07/19 05:31:07;;;;;;;4.20;3.80;;;28.00;53.10;;;;;;4934365;29;20446;-71
2022/07/19 05:33:36;;;;;;;7.30;4.37;;;28.00;53.20;;;;;;4926122;29;20473;-71
2022/07/19 05:36:10;;;;;;;5.87;4.20;;;28.00;53.30;;;;;;4919538;29;20557;-71
2022/07/19 05:38:39;;;;;;;4.13;3.80;;;28.00;53.30;;;;;;4921800;29;20457;-72
2022/07/19 05:41:08;;;;;;;4.77;4.07;;;27.90;53.40;;;;;;4917241;29;20507;-70
2022/07/19 05:43:36;;;;;;;5.67;3.87;;;27.90;53.40;;;;;;4917712;29;20463;-70
2022/07/19 05:46:07;;;;;;;4.03;3.73;;;27.90;53.40;;;;;;4916796;29;20843;-71
2022/07/19 05:48:36;;;;;;;3.70;3.50;;;28.00;53.30;;;;;;4919322;29;20875;-68
2022/07/19 05:51:08;;;;;;;4.40;4.00;;;27.90;53.40;;;;;;4923800;29;21127;-71
2022/07/19 05:53:37;;;;;;;4.37;3.90;;;27.90;53.30;;;;;;4920369;29;21135;-70
2022/07/19 05:56:06;;;;;;;5.57;4.27;;;27.80;53.40;;;;;;4923237;29;20482;-70
2022/07/19 05:58:35;;;;;;;4.37;4.03;;;27.80;53.30;;;;;;4915435;29;20514;-70
2022/07/19 06:01:23;;;;;;;6.57;4.00;;;27.80;53.30;;;;;;4920401;29;20503;-70
2022/07/19 06:03:53;;;;;;;5.03;3.70;;;27.70;53.20;;;;;;4918969;29;20472;-70
2022/07/19 06:06:29;;;;;;;4.37;4.07;;;27.80;53.10;;;;;;4903655;29;20454;-70
2022/07/19 06:08:57;;;;;;;3.37;3.03;;;27.70;53.10;;;;;;4917721;29;20485;-70
2022/07/19 06:11:26;;;;;;;3.37;3.10;;;27.80;53.00;;;;;;4922912;29;20531;-70
2022/07/19 06:13:55;;;;;;;3.50;3.20;;;27.80;53.10;;;;;;4929151;29;20494;-70
2022/07/19 06:16:24;;;;;;;3.80;3.50;;;27.80;53.00;;;;;;4930666;29;21129;-70
2022/07/19 06:18:53;;;;;;;3.33;3.13;;;27.80;53.00;;;;;;4932711;29;20951;-70
2022/07/19 06:21:22;;;;;;;6.20;3.47;;;27.70;53.00;;;;;;4933925;29;20479;-70
2022/07/19 06:23:52;;;;;;;4.03;3.73;;;27.70;52.90;;;;;;4917326;29;20461;-70
2022/07/19 06:26:21;;;;;;;4.17;3.73;;;27.70;52.90;;;;;;4933899;29;20485;-71
2022/07/19 06:28:49;;;;;;;4.37;4.07;;;27.70;53.00;;;;;;4932489;29;20465;-70
2022/07/19 06:31:17;;;;;;;3.83;3.53;;;27.80;52.90;;;;;;4932553;29;20450;-70
2022/07/19 06:33:48;;;;;;;4.27;3.87;;;27.80;52.80;;;;;;4935855;29;20447;-70
2022/07/19 06:36:17;;;;;;;3.67;3.33;;;27.80;52.90;;;;;;4936721;29;20974;-69
2022/07/19 06:38:45;;;;;;;4.23;3.60;;;27.80;53.00;;;;;;4937321;29;20514;-70
2022/07/19 06:41:16;;;;;;;5.90;3.33;;;27.80;53.10;;;;;;4918517;29;20458;-71
2022/07/19 06:43:44;;;;;;;4.53;4.17;;;27.80;53.60;;;;;;4918679;29;20442;-71
2022/07/19 06:46:13;;;;;;;6.53;4.53;;;28.10;53.10;;;;;;4931452;29;20782;-71
2022/07/19 06:48:41;;;;;;;5.90;4.03;;;28.40;52.90;;;;;;4931796;29;20550;-71
2022/07/19 06:51:09;;;;;;;4.40;4.00;;;28.60;52.60;;;;;;4935439;29;20550;-71
2022/07/19 06:53:38;;;;;;;11.30;5.33;;;28.80;52.70;;;;;;4934364;29;20501;-72
2022/07/19 06:56:07;;;;;;;10.50;5.43;;;29.00;53.10;;;;;;4930553;29;20533;-72
2022/07/19 06:58:36;;;;;;;6.03;5.33;;;29.20;53.40;;;;;;4935654;29;20548;-71
2022/07/19 07:01:09;;;;;;;7.50;5.57;;;29.30;53.60;;;;;;4933605;29;20489;-71
2022/07/19 07:03:38;;;;;;;17.60;5.40;;;29.40;53.70;;;;;;4931115;29;20454;-72
2022/07/19 07:06:06;;;;;;;7.40;5.13;;;29.40;53.70;;;;;;4933812;29;20464;-71
2022/07/19 07:08:34;;;;;;;11.80;6.67;;;29.40;53.80;;;;;;4933203;29;20449;-72
2022/07/19 07:11:05;;;;;;;11.37;5.07;;;29.40;53.80;;;;;;4925669;29;20496;-71
2022/07/19 07:13:33;;;;;;;8.07;5.17;;;29.50;53.70;;;;;;4931786;29;20549;-72
2022/07/19 07:16:07;;;;;;;5.17;4.07;;;29.50;53.70;;;;;;4935052;29;20447;-71
2022/07/19 07:18:36;;;;;;;11.40;5.20;;;29.50;53.60;;;;;;4927896;29;20567;-73
2022/07/19 07:21:07;;;;;;;5.53;4.40;;;29.50;53.60;;;;;;4933264;29;20533;-71
2022/07/19 07:23:35;;;;;;;7.80;4.60;;;29.50;53.60;;;;;;4929255;29;20450;-74
2022/07/19 07:26:06;;;;;;;5.23;4.73;;;29.50;53.60;;;;;;4933614;29;20547;-71
2022/07/19 07:28:35;;;;;;;5.63;4.43;;;29.50;53.50;;;;;;4929777;29;20455;-71
2022/07/19 07:31:07;;;;;;;7.40;4.13;;;29.50;53.50;;;;;;4934716;29;20496;-71
2022/07/19 07:33:36;;;;;;;6.20;4.37;;;29.50;53.40;;;;;;4935137;29;20455;-71
2022/07/19 07:36:07;;;;;;;6.80;4.33;;;29.50;53.30;;;;;;4933278;29;20460;-71
2022/07/19 07:38:35;;;;;;;6.70;4.23;;;29.50;53.30;;;;;;4933328;29;20513;-71
2022/07/19 07:41:07;;;;;;;5.30;3.80;;;29.50;53.30;;;;;;4928537;29;21007;-72
2022/07/19 07:43:55;;;;;;;5.80;4.10;;;29.50;53.30;;;;;;4932285;29;20469;-72
2022/07/19 07:46:24;;;;;;;5.60;4.43;;;29.50;53.30;;;;;;4934275;29;20489;-72
2022/07/19 07:48:53;;;;;;;4.17;3.77;;;29.50;53.30;;;;;;4916087;29;20455;-71
2022/07/19 07:51:24;;;;;;;5.67;3.73;;;29.60;53.30;;;;;;4931391;29;20494;-71
2022/07/19 07:54:12;;;;;;;5.93;4.40;;;29.50;53.30;;;;;;4931503;29;20459;-71
2022/07/19 07:56:41;;;;;;;4.93;3.70;;;29.60;53.40;;;;;;4933374;29;20441;-71
2022/07/19 07:59:09;;;;;;;4.23;3.87;;;29.60;53.30;;;;;;4935268;29;20475;-71
2022/07/19 08:01:39;;;;;;;5.80;3.87;;;29.60;53.20;;;;;;4934632;29;20527;-72
2022/07/19 08:04:09;;;;;;;6.40;3.17;;;29.60;53.20;;;;;;4934802;29;20451;-73
2022/07/19 08:06:37;;;;;;;5.23;3.87;;;29.60;53.20;;;;;;4935002;29;20455;-72
2022/07/19 08:09:06;;;;;;;6.70;4.10;;;29.60;53.20;;;;;;4934685;29;20939;-72
2022/07/19 08:11:35;;;;;;;4.50;3.53;;;29.60;53.20;;;;;;4934112;29;20483;-72
2022/07/19 08:14:04;;;;;;;4.00;3.43;;;29.60;53.20;;;;;;4918513;29;20864;-72
2022/07/19 08:16:32;;;;;;;4.50;3.63;;;29.60;53.20;;;;;;4920751;29;20470;-71
2022/07/19 08:19:03;;;;;;;4.13;3.73;;;29.60;53.20;;;;;;4935090;29;20486;-71
2022/07/19 08:21:32;;;;;;;4.23;3.50;;;29.60;53.10;;;;;;4931157;29;20469;-71
2022/07/19 08:24:00;;;;;;;5.73;3.27;;;29.60;53.10;;;;;;4925629;29;20459;-72
2022/07/19 08:26:30;;;;;;;4.07;3.87;;;29.60;53.20;;;;;;4937245;29;20472;-72
2022/07/19 08:28:58;;;;;;;4.80;3.80;;;29.60;53.10;;;;;;4939066;29;20922;-73
2022/07/19 08:31:26;;;;;;;4.17;3.70;;;29.60;53.10;;;;;;4933686;29;20460;-73
2022/07/19 08:33:55;;;;;;;3.70;3.07;;;29.60;53.00;;;;;;4934455;29;21338;-71
2022/07/19 08:36:25;;;;;;;6.43;3.03;;;29.70;53.00;;;;;;4932984;29;20578;-71
2022/07/19 08:38:53;;;;;;;5.90;3.50;;;29.60;53.10;;;;;;4926368;29;21004;-71
2022/07/19 08:41:22;;;;;;;4.60;3.27;;;29.70;53.10;;;;;;4932052;29;20466;-71
2022/07/19 08:43:51;;;;;;;3.97;3.50;;;29.70;53.10;;;;;;4927238;29;20459;-72
2022/07/19 08:46:21;;;;;;;3.77;3.40;;;29.70;53.10;;;;;;4932955;29;20470;-71
2022/07/19 08:48:50;;;;;;;3.53;3.20;;;29.70;53.10;;;;;;4932269;29;20445;-72
2022/07/19 08:51:22;;;;;;;4.20;3.90;;;29.70;53.10;;;;;;4933546;29;20868;-72
2022/07/19 08:53:52;;;;;;;5.47;3.93;;;29.70;53.10;;;;;;4935468;29;20448;-73
2022/07/19 08:59:07;;;;;;;3.63;3.33;;;29.70;53.10;;;;;;4929842;29;20503;-71
2022/07/19 09:01:36;;;;;;;3.27;2.97;;;29.70;53.10;;;;;;4936271;29;20460;-71
2022/07/19 09:04:11;;;;;;;3.90;3.60;;;29.70;53.00;;;;;;4934536;29;20449;-70
2022/07/19 09:06:41;;;;;;;3.80;3.50;;;29.70;53.00;;;;;;4933678;29;20930;-72
2022/07/19 09:09:12;;;;;;;3.60;3.30;;;29.70;52.90;;;;;;4934739;29;20822;-71
2022/07/19 09:11:48;;;;;;;3.93;3.13;;;29.70;52.80;;;;;;4933135;29;20797;-69
2022/07/19 09:14:18;;;;;;;3.20;3.00;;;29.80;52.70;;;;;;4933162;29;21024;-71
2022/07/19 09:17:00;;;;;;;3.30;3.10;;;29.70;52.60;;;;;;4932777;29;20458;-69
2022/07/19 09:19:33;;;;;;;3.10;2.90;;;29.80;52.50;;;;;;4929136;29;20483;-70
2022/07/19 09:22:03;;;;;;;5.00;3.70;;;29.80;52.50;;;;;;4932260;29;20495;-69
2022/07/19 09:24:36;;;;;;;3.90;3.60;;;29.80;52.60;;;;;;4933259;29;20482;-70
2022/07/19 09:27:06;;;;;;;3.70;3.43;;;29.80;52.60;;;;;;4933060;29;20465;-71
2022/07/19 09:29:37;;;;;;;5.90;2.97;;;29.80;52.50;;;;;;4934337;29;20545;-71
2022/07/19 09:32:12;;;;;;;3.53;3.23;;;29.80;52.50;;;;;;4933968;29;21055;-71
2022/07/19 09:34:42;;;;;;;7.20;3.70;;;29.80;52.50;;;;;;4932011;29;20446;-71
2022/07/19 09:37:13;;;;;;;3.10;2.80;;;29.80;52.40;;;;;;4933966;29;20481;-71
2022/07/19 09:39:45;;;;;;;3.63;3.33;;;29.80;52.40;;;;;;4933983;29;20814;-71
2022/07/19 09:42:16;;;;;;;5.80;3.10;;;29.80;52.40;;;;;;4915915;29;20545;-72
2022/07/19 09:44:45;;;;;;;6.63;3.57;;;29.80;52.40;;;;;;4934737;29;20470;-73
2022/07/19 09:47:14;;;;;;;8.40;3.87;;;29.80;52.30;;;;;;4933608;29;20834;-74
2022/07/19 09:49:42;;;;;;;3.07;2.83;;;29.80;52.40;;;;;;4914572;29;20475;-71
2022/07/19 09:52:11;;;;;;;3.27;3.07;;;29.80;52.40;;;;;;4933841;29;20554;-71
2022/07/19 09:54:42;;;;;;;3.30;3.00;;;29.80;52.40;;;;;;4937699;29;20830;-75
2022/07/19 09:57:14;;;;;;;3.90;3.47;;;29.80;52.40;;;;;;4938148;29;20443;-72
2022/07/19 09:59:51;;;;;;;3.40;3.20;;;29.90;52.40;;;;;;4938147;29;20564;-72
2022/07/19 10:02:22;;;;;;;3.00;2.80;;;29.90;52.40;;;;;;4938037;29;20503;-71
2022/07/19 10:04:51;;;;;;;3.30;3.10;;;29.90;52.40;;;;;;4938481;29;20463;-71
2022/07/19 10:07:19;;;;;;;3.10;2.67;;;29.90;52.40;;;;;;4937234;29;20522;-72
2022/07/19 10:09:48;;;;;;;3.87;3.00;;;29.90;52.40;;;;;;4937539;29;20935;-73
2022/07/19 10:12:18;;;;;;;3.97;3.30;;;29.90;52.40;;;;;;4920449;29;20516;-73
2022/07/19 10:14:47;;;;;;;3.43;3.20;;;29.90;52.40;;;;;;4936992;29;20492;-73
2022/07/19 10:17:27;;;;;;;3.30;3.10;;;29.90;52.30;;;;;;4935356;29;20455;-72
2022/07/19 10:19:58;;;;;;;2.93;2.73;;;29.90;52.30;;;;;;4935974;29;21007;-75
2022/07/19 10:22:27;;;;;;;2.63;2.43;;;29.90;52.30;;;;;;4937135;29;20450;-73
2022/07/19 10:24:57;;;;;;;4.87;3.00;;;29.90;52.30;;;;;;4935906;29;20492;-72
2022/07/19 10:27:42;;;;;;;8.73;2.80;;;29.90;52.30;;;;;;4918040;29;20527;-71
2022/07/19 10:30:20;;;;;;;3.43;3.10;;;29.90;52.30;;;;;;4916006;29;20848;-72
2022/07/19 10:32:51;;;;;;;3.27;3.07;;;29.90;52.30;;;;;;4935519;29;20458;-71
2022/07/19 10:35:22;;;;;;;19.37;3.90;;;29.90;52.30;;;;;;4936881;29;20838;-71
2022/07/19 10:37:52;;;;;;;6.63;3.10;;;29.90;52.30;;;;;;4931933;29;20482;-71
2022/07/19 10:40:41;;;;;;;3.10;2.90;;;29.90;52.30;;;;;;4912206;29;20570;-69
2022/07/19 10:43:12;;;;;;;4.17;2.80;;;29.90;52.30;;;;;;4930072;29;20451;-70
2022/07/19 10:45:42;;;;;;;3.70;3.40;;;29.90;52.40;;;;;;4932487;29;20462;-71
2022/07/19 10:48:15;;;;;;;2.47;2.37;;;30.00;52.40;;;;;;4934888;29;20458;-72
2022/07/19 10:50:46;;;;;;;3.40;2.60;;;29.90;52.40;;;;;;4935683;29;20460;-73
2022/07/19 10:53:53;;;;;;;3.37;2.57;;;30.00;52.20;;;;;;4915960;29;20451;-72
2022/07/19 10:56:24;;;;;;;5.13;3.00;;;30.00;52.20;;;;;;4931964;29;20481;-72
2022/07/19 10:58:56;;;;;;;3.50;2.80;;;30.00;52.10;;;;;;4935376;29;20929;-70
2022/07/19 11:01:25;;;;;;;3.00;2.73;;;30.00;52.00;;;;;;4925136;29;20518;-74
2022/07/19 11:03:55;;;;;;;4.30;3.03;;;30.00;51.90;;;;;;4933369;29;20961;-71
2022/07/19 11:06:25;;;;;;;3.40;3.03;;;30.00;51.80;;;;;;4933546;29;20861;-71
2022/07/19 11:08:55;;;;;;;3.03;2.73;;;30.00;51.60;;;;;;4932853;29;20450;-71
2022/07/19 11:11:25;;;;;;;3.93;3.33;;;30.10;51.50;;;;;;4932334;29;20487;-71
2022/07/19 11:13:57;;;;;;;3.37;3.07;;;30.00;51.40;;;;;;4932854;29;20498;-71
2022/07/19 11:16:27;;;;;;;3.10;2.60;;;30.10;51.20;;;;;;4931725;29;20585;-72
2022/07/19 11:19:04;;;;;;;3.70;3.10;;;30.00;51.20;;;;;;4931781;29;20451;-72
2022/07/19 11:21:34;;;;;;;3.63;3.33;;;30.00;51.10;;;;;;4936816;29;20869;-72
2022/07/19 11:24:04;;;;;;;2.57;2.37;;;30.00;51.10;;;;;;4933776;29;20506;-72
2022/07/19 11:26:37;;;;;;;3.90;3.03;;;30.00;51.00;;;;;;4935165;29;20472;-72
2022/07/19 11:29:16;;;;;;;5.60;3.17;;;30.00;51.00;;;;;;4914122;29;20992;-72
2022/07/19 11:31:47;;;;;;;3.93;3.30;;;30.00;50.90;;;;;;4932383;29;20955;-72
2022/07/19 11:34:16;;;;;;;3.30;3.00;;;30.00;50.80;;;;;;4934215;29;20525;-72
2022/07/19 11:36:44;;;;;;;8.43;3.83;;;30.00;50.90;;;;;;4931939;29;20487;-74
2022/07/19 11:39:12;;;;;;;5.00;3.97;;;30.10;50.70;;;;;;4930882;29;20871;-72
2022/07/19 11:41:45;;;;;;;5.97;4.07;;;30.00;50.80;;;;;;4930545;29;20483;-72
2022/07/19 11:44:15;;;;;;;7.90;4.60;;;30.10;50.70;;;;;;4927809;29;20893;-72
2022/07/19 11:46:45;;;;;;;7.80;4.87;;;30.10;50.70;;;;;;4928673;29;20523;-73
2022/07/19 11:49:15;;;;;;;6.80;4.47;;;30.10;50.70;;;;;;4915596;29;20519;-73
2022/07/19 11:51:43;;;;;;;6.20;4.27;;;30.10;50.70;;;;;;4935730;29;20542;-72
2022/07/19 11:54:12;;;;;;;6.30;4.60;;;30.10;50.70;;;;;;4935653;29;20462;-72
2022/07/19 11:56:40;;;;;;;5.23;4.53;;;30.10;50.70;;;;;;4923821;29;20463;-72
2022/07/19 11:59:09;;;;;;;7.60;5.37;;;30.00;50.90;;;;;;4932566;29;20457;-73
2022/07/19 12:01:41;;;;;;;7.80;5.17;;;30.00;50.90;;;;;;4931531;29;20479;-72
2022/07/19 12:04:11;;;;;;;7.27;5.00;;;29.90;50.90;;;;;;4930359;29;20465;-72
2022/07/19 12:06:42;;;;;;;6.50;4.97;;;29.90;51.00;;;;;;4933323;29;20466;-73
2022/07/19 12:09:15;;;;;;;6.47;4.40;;;29.90;51.00;;;;;;4922102;29;20486;-72
2022/07/19 12:11:45;;;;;;;5.63;4.30;;;29.90;51.00;;;;;;4924834;29;20823;-71
2022/07/19 12:14:21;;;;;;;5.10;4.60;;;29.90;50.90;;;;;;4929162;29;20525;-72
2022/07/19 12:17:10;;;;;;;6.73;5.23;;;29.90;51.00;;;;;;4922933;29;20460;-72
2022/07/19 12:19:39;;;;;;;5.90;4.00;;;29.90;50.90;;;;;;4929984;29;20463;-72
2022/07/19 12:22:28;;;;;;;4.60;4.13;;;29.90;50.90;;;;;;4933787;29;20919;-73
2022/07/19 12:24:57;;;;;;;6.17;3.90;;;29.90;50.70;;;;;;4924705;29;20523;-74
2022/07/19 12:27:31;;;;;;;4.97;3.70;;;29.90;50.60;;;;;;4931082;29;20545;-70
2022/07/19 12:30:02;;;;;;;5.47;4.67;;;29.90;50.10;;;;;;4931501;29;20463;-70
2022/07/19 12:32:34;;;;;;;5.73;3.63;;;29.90;50.30;;;;;;4934463;29;20499;-71
2022/07/19 12:35:05;;;;;;;5.27;4.03;;;29.90;50.40;;;;;;4933229;29;20974;-70
2022/07/19 12:37:35;;;;;;;7.80;4.90;;;29.90;50.50;;;;;;4933175;29;20450;-71
2022/07/19 12:40:10;;;;;;;6.10;3.70;;;29.90;50.40;;;;;;4931733;29;20986;-71
2022/07/19 12:42:41;;;;;;;5.90;4.10;;;30.00;50.50;;;;;;4932858;29;20443;-71
2022/07/19 12:45:12;;;;;;;6.67;4.03;;;30.00;50.40;;;;;;4933888;29;20447;-71
2022/07/19 12:47:42;;;;;;;8.33;3.67;;;30.00;50.50;;;;;;4933908;29;20454;-70
2022/07/19 12:50:20;;;;;;;5.20;3.60;;;30.00;50.40;;;;;;4921617;29;20508;-71
2022/07/19 12:52:48;;;;;;;6.23;4.10;;;30.00;50.50;;;;;;4924722;29;20532;-71
2022/07/19 12:55:16;;;;;;;4.63;3.97;;;30.00;50.50;;;;;;4925806;29;20459;-71
2022/07/19 12:57:48;;;;;;;4.70;3.53;;;30.00;50.50;;;;;;4929938;29;20455;-71
2022/07/19 13:00:16;;;;;;;7.27;3.40;;;30.00;50.40;;;;;;4931636;29;20529;-70
2022/07/19 13:02:48;;;;;;;3.77;3.37;;;30.10;50.20;;;;;;4926423;29;20930;-70